createdAt,value
2022-09-09T00:04:42.967Z,86.30
2022-09-09T00:09:55.284Z,86.31
2022-09-09T00:15:09.398Z,86.42
2022-09-09T00:20:33.682Z,86.48
2022-09-09T00:25:59.508Z,86.44
2022-09-09T00:31:13.938Z,86.56
2022-09-09T00:36:21.384Z,86.52
2022-09-09T00:41:48.974Z,86.49
2022-09-09T00:47:31.433Z,86.45
2022-09-09T00:52:45.015Z,86.53
2022-09-09T00:57:53.332Z,86.65
2022-09-09T01:03:18.705Z,86.61
2022-09-09T01:08:25.066Z,86.56
2022-09-09T01:13:37.456Z,86.61
2022-09-09T01:18:50.827Z,86.73
2022-09-09T01:24:26.959Z,86.66
2022-09-09T01:29:50.363Z,87.10
2022-09-09T01:34:56.464Z,87.45
2022-09-09T01:40:00.213Z,87.41
2022-09-09T01:45:04.089Z,87.36
2022-09-09T01:50:14.609Z,87.27
2022-09-09T01:55:18.068Z,87.14
2022-09-09T02:00:22.252Z,86.96
2022-09-09T02:05:55.744Z,86.84
2022-09-09T02:11:10.718Z,86.97
2022-09-09T02:16:24.549Z,86.62
2022-09-09T02:21:30.471Z,86.44
2022-09-09T02:26:35.236Z,86.18
2022-09-09T02:31:42.662Z,86.42
2022-09-09T02:36:49.702Z,86.42
2022-09-09T02:41:54.126Z,86.40
2022-09-09T02:47:16.141Z,86.72
2022-09-09T02:52:34.375Z,87.00
2022-09-09T02:57:43.707Z,86.85
2022-09-09T03:02:48.028Z,86.80
2022-09-09T03:08:12.002Z,86.47
2022-09-09T03:13:16.576Z,86.75
2022-09-09T03:18:20.656Z,86.94
2022-09-09T03:23:26.320Z,86.77
2022-09-09T03:28:40.250Z,86.64
2022-09-09T03:33:47.405Z,86.77
2022-09-09T03:38:55.970Z,86.71
2022-09-09T03:44:10.208Z,86.44
2022-09-09T03:49:17.969Z,86.56
2022-09-09T03:54:21.263Z,86.49
2022-09-09T03:59:25.103Z,86.47
2022-09-09T04:04:30.047Z,86.89
2022-09-09T04:09:34.827Z,87.96
2022-09-09T04:14:38.704Z,87.66
2022-09-09T04:19:43.623Z,87.58
2022-09-09T04:24:48.939Z,87.45
2022-09-09T04:29:53.784Z,87.37
2022-09-09T04:34:57.195Z,87.24
2022-09-09T04:40:03.383Z,87.13
2022-09-09T04:45:08.168Z,87.09
2022-09-09T04:50:11.812Z,87.00
2022-09-09T04:55:16.226Z,86.87
2022-09-09T05:00:26.255Z,86.90
2022-09-09T05:05:33.875Z,87.09
2022-09-09T05:10:45.243Z,87.20
2022-09-09T05:16:05.311Z,87.28
2022-09-09T05:21:12.419Z,87.04
2022-09-09T05:26:19.472Z,87.25
2022-09-09T05:31:25.923Z,86.92
2022-09-09T05:36:31.112Z,86.43
2022-09-09T05:41:38.798Z,86.37
2022-09-09T05:46:42.875Z,86.51
2022-09-09T05:51:46.446Z,86.18
2022-09-09T05:56:52.149Z,85.54
2022-09-09T06:01:56.071Z,85.20
2022-09-09T06:07:22.102Z,84.89
2022-09-09T06:12:29.878Z,84.25
2022-09-09T06:17:33.683Z,83.84
2022-09-09T06:22:37.561Z,82.64
2022-09-09T06:27:40.714Z,82.23
2022-09-09T06:32:47.204Z,82.16
2022-09-09T06:37:50.880Z,80.95
2022-09-09T06:42:55.046Z,80.20
2022-09-09T06:48:13.085Z,79.83
2022-09-09T06:53:23.301Z,80.50
2022-09-09T06:58:27.461Z,79.40
2022-09-09T07:03:31.567Z,77.15
2022-09-09T07:08:36.290Z,76.39
2022-09-09T07:13:40.186Z,75.87
2022-09-09T07:18:47.146Z,73.76
2022-09-09T07:23:59.246Z,71.57
2022-09-09T07:29:03.821Z,71.11
2022-09-09T07:34:08.615Z,70.11
2022-09-09T07:39:19.757Z,68.31
2022-09-09T07:44:26.448Z,68.54
2022-09-09T07:49:41.556Z,69.94
2022-09-09T07:54:53.962Z,68.51
2022-09-09T07:59:58.716Z,68.58
2022-09-09T08:05:02.980Z,65.77
2022-09-09T08:10:10.598Z,65.31
2022-09-09T08:15:16.934Z,64.16
2022-09-09T08:20:21.096Z,65.62
2022-09-09T08:25:24.876Z,61.87
2022-09-09T08:30:34.807Z,62.92
2022-09-09T08:35:41.619Z,61.31
2022-09-09T08:40:50.469Z,61.03
2022-09-09T08:46:02.400Z,61.10
2022-09-09T08:51:09.155Z,60.00
2022-09-09T08:56:19.972Z,58.46
2022-09-09T09:02:05.374Z,59.04
2022-09-09T09:07:34.843Z,61.31
2022-09-09T09:12:44.203Z,58.09
2022-09-09T09:17:49.849Z,60.10
2022-09-09T09:22:56.141Z,59.83
2022-09-09T09:28:08.031Z,60.19
2022-09-09T09:33:29.329Z,58.39
2022-09-09T09:44:00.651Z,60.16
2022-09-09T09:49:06.877Z,59.89
2022-09-09T09:54:14.567Z,59.62
2022-09-09T09:59:40.799Z,60.11
2022-09-09T10:05:14.374Z,61.41
2022-09-09T10:10:34.262Z,60.16
2022-09-09T10:15:53.819Z,58.34
2022-09-09T10:21:14.300Z,58.83
2022-09-09T10:26:31.772Z,56.69
2022-09-09T10:31:43.572Z,54.82
2022-09-09T10:36:50.426Z,56.24
2022-09-09T10:42:03.537Z,58.18
2022-09-09T10:47:38.665Z,59.27
2022-09-09T10:53:20.272Z,59.12
2022-09-09T10:58:45.319Z,57.39
2022-09-09T11:03:53.944Z,55.99
2022-09-09T11:09:02.579Z,52.64
2022-09-09T11:14:13.337Z,51.71
2022-09-09T11:19:35.780Z,53.40
2022-09-09T11:24:43.190Z,53.90
2022-09-09T11:30:06.388Z,53.24
2022-09-09T11:35:33.979Z,53.52
2022-09-09T11:40:37.199Z,54.21
2022-09-09T11:45:42.492Z,54.42
2022-09-09T11:50:47.181Z,53.80
2022-09-09T11:56:09.556Z,51.00
2022-09-09T12:01:37.291Z,51.14
2022-09-09T12:06:49.731Z,49.71
2022-09-09T12:11:53.178Z,52.25
2022-09-09T12:16:56.662Z,51.43
2022-09-09T12:22:07.370Z,51.52
2022-09-09T12:27:58.668Z,52.51
2022-09-09T12:33:07.934Z,51.86
2022-09-09T12:38:28.498Z,50.49
2022-09-09T12:43:32.083Z,51.55
2022-09-09T12:48:43.344Z,50.38
2022-09-09T12:53:47.277Z,50.64
2022-09-09T12:58:55.402Z,50.36
2022-09-09T13:04:00.145Z,48.48
2022-09-09T13:09:11.379Z,47.81
2022-09-09T13:14:32.785Z,47.36
2022-09-09T13:19:46.846Z,51.42
2022-09-09T13:25:00.702Z,49.79
2022-09-09T13:30:24.718Z,50.22
2022-09-09T13:35:30.908Z,48.90
2022-09-09T13:40:36.168Z,48.92
2022-09-09T13:45:39.535Z,49.77
2022-09-09T13:50:47.866Z,51.33
2022-09-09T13:55:53.409Z,52.80
2022-09-09T14:00:57.018Z,51.81
2022-09-09T14:06:00.244Z,50.57
2022-09-09T14:11:04.518Z,50.34
2022-09-09T14:16:12.944Z,49.85
2022-09-09T14:21:17.009Z,52.46
2022-09-09T14:26:25.033Z,52.58
2022-09-09T14:31:28.440Z,53.53
2022-09-09T14:36:31.791Z,54.35
2022-09-09T14:41:37.264Z,53.34
2022-09-09T14:46:46.374Z,53.29
2022-09-09T14:51:59.951Z,53.91
2022-09-09T14:57:07.234Z,53.35
2022-09-09T15:02:15.349Z,53.70
2022-09-09T15:07:22.069Z,53.88
2022-09-09T15:12:28.682Z,53.83
2022-09-09T15:17:35.808Z,54.19
2022-09-09T15:22:50.804Z,54.77
2022-09-09T15:27:54.626Z,54.68
2022-09-09T15:32:57.952Z,55.72
2022-09-09T15:38:04.421Z,56.42
2022-09-09T15:43:10.747Z,55.74
2022-09-09T15:48:17.330Z,56.19
2022-09-09T15:53:21.550Z,58.10
2022-09-09T15:58:24.919Z,59.18
2022-09-09T16:03:28.155Z,59.34
2022-09-09T16:08:39.016Z,59.06
2022-09-09T16:13:46.804Z,59.38
2022-09-09T16:18:59.419Z,59.87
2022-09-09T16:24:05.096Z,59.98
2022-09-09T16:29:28.436Z,60.12
2022-09-09T16:35:08.584Z,60.71
2022-09-09T16:40:21.789Z,63.77
2022-09-09T16:45:25.201Z,64.28
2022-09-09T16:50:28.481Z,63.07
2022-09-09T16:55:34.420Z,63.03
2022-09-09T17:00:51.795Z,64.05
2022-09-09T17:06:02.160Z,65.33
2022-09-09T17:11:29.082Z,66.05
2022-09-09T17:16:43.322Z,65.27
2022-09-09T17:27:11.914Z,65.45
2022-09-09T17:32:15.728Z,65.89
2022-09-09T17:37:25.202Z,66.40
2022-09-09T17:42:29.473Z,64.66
2022-09-09T17:47:34.333Z,65.39
2022-09-09T17:52:39.091Z,66.03
2022-09-09T17:57:50.914Z,66.43
2022-09-09T18:02:57.878Z,66.29
2022-09-09T18:08:01.654Z,66.49
2022-09-09T18:13:16.815Z,66.56
2022-09-09T18:18:21.407Z,66.85
2022-09-09T18:23:26.433Z,66.94
2022-09-09T18:28:37.643Z,67.43
2022-09-09T18:33:55.766Z,67.97
2022-09-09T18:39:06.899Z,68.02
2022-09-09T18:44:23.087Z,68.36
2022-09-09T18:49:38.298Z,68.24
2022-09-09T18:54:46.309Z,68.46
2022-09-09T18:59:52.394Z,68.98
2022-09-09T19:05:04.740Z,69.78
2022-09-09T19:10:08.553Z,70.38
2022-09-09T19:15:19.415Z,70.97
2022-09-09T19:20:24.645Z,71.34
2022-09-09T19:25:28.048Z,71.63
2022-09-09T19:30:37.892Z,71.95
2022-09-09T19:35:42.179Z,72.98
2022-09-09T19:40:48.193Z,73.81
2022-09-09T19:45:59.256Z,74.50
2022-09-09T19:51:09.840Z,75.19
2022-09-09T19:56:14.028Z,75.61
2022-09-09T20:01:56.946Z,75.87
2022-09-09T20:07:19.779Z,75.82
2022-09-09T20:12:23.140Z,76.12
2022-09-09T20:17:26.630Z,73.81
2022-09-09T20:22:30.093Z,72.94
2022-09-09T20:27:33.882Z,76.87
2022-09-09T20:32:37.111Z,77.26
2022-09-09T20:37:41.319Z,76.85
2022-09-09T20:42:52.595Z,77.05
2022-09-09T20:47:57.905Z,78.51
2022-09-09T20:53:01.013Z,79.17
2022-09-09T20:58:04.570Z,79.36
2022-09-09T21:03:07.853Z,78.85
2022-09-09T21:08:12.094Z,78.20
2022-09-09T21:13:15.372Z,78.57
2022-09-09T21:18:19.338Z,79.76
2022-09-09T21:23:23.021Z,80.55
2022-09-09T21:28:27.306Z,80.70
2022-09-09T21:33:30.702Z,80.07
2022-09-09T21:38:39.575Z,81.00
2022-09-09T21:43:54.515Z,81.43
2022-09-09T21:48:58.599Z,81.71
2022-09-09T21:54:04.744Z,81.99
2022-09-09T21:59:08.433Z,80.96
2022-09-09T22:04:17.053Z,83.00
2022-09-09T22:09:20.563Z,84.32
2022-09-09T22:14:27.572Z,84.26
2022-09-09T22:19:32.247Z,83.31
2022-09-09T22:24:36.105Z,85.44
2022-09-09T22:29:42.920Z,86.03
2022-09-09T22:34:49.651Z,86.02
2022-09-09T22:39:53.691Z,86.81
2022-09-09T22:44:58.228Z,84.76
2022-09-09T22:50:04.431Z,83.53
2022-09-09T22:55:10.275Z,85.33
2022-09-09T23:00:16.891Z,83.85
2022-09-09T23:05:22.812Z,84.03
2022-09-09T23:10:33.308Z,85.03
2022-09-09T23:15:40.553Z,86.11
2022-09-09T23:20:43.978Z,87.08
2022-09-09T23:25:49.649Z,84.96
2022-09-09T23:30:53.169Z,84.44
2022-09-09T23:36:01.131Z,84.64
2022-09-09T23:41:06.318Z,85.60
2022-09-09T23:46:15.703Z,85.87
2022-09-09T23:51:24.068Z,87.37
2022-09-09T23:56:32.766Z,87.31
